createdAt,value
2023-04-24T00:01:40.440Z,0.40
2023-04-24T00:04:08.250Z,0.40
2023-04-24T00:06:34.739Z,0.60
2023-04-24T00:09:01.533Z,0.30
2023-04-24T00:11:27.948Z,0.33
2023-04-24T00:13:54.597Z,0.30
2023-04-24T00:16:21.126Z,0.30
2023-04-24T00:18:48.826Z,0.43
2023-04-24T00:21:17.114Z,0.40
2023-04-24T00:23:43.556Z,0.43
2023-04-24T00:26:09.880Z,0.40
2023-04-24T00:28:36.269Z,0.60
2023-04-24T00:31:02.661Z,0.60
2023-04-24T00:33:28.979Z,0.50
2023-04-24T00:35:55.429Z,0.30
2023-04-24T00:38:23.034Z,0.43
2023-04-24T00:40:50.894Z,0.40
2023-04-24T00:43:17.571Z,0.50
2023-04-24T00:45:44.142Z,0.67
2023-04-24T00:48:10.587Z,0.37
2023-04-24T00:50:37.658Z,0.40
2023-04-24T00:53:04.113Z,0.90
2023-04-24T00:55:31.082Z,0.40
2023-04-24T00:57:57.521Z,0.60
2023-04-24T01:00:24.244Z,0.70
2023-04-24T01:02:50.881Z,0.40
2023-04-24T01:05:18.248Z,0.30
2023-04-24T01:07:46.524Z,0.60
2023-04-24T01:10:13.591Z,1.30
2023-04-24T01:12:39.971Z,0.53
2023-04-24T01:15:07.421Z,0.60
2023-04-24T01:17:33.956Z,0.57
2023-04-24T01:20:00.978Z,1.27
2023-04-24T01:22:27.575Z,1.00
2023-04-24T01:24:54.390Z,0.60
2023-04-24T01:27:21.292Z,0.90
2023-04-24T01:29:50.234Z,0.50
2023-04-24T01:32:16.783Z,0.50
2023-04-24T01:34:43.815Z,0.90
2023-04-24T01:37:10.277Z,0.67
2023-04-24T01:39:36.949Z,0.50
2023-04-24T01:42:03.460Z,0.50
2023-04-24T01:44:29.884Z,0.40
2023-04-24T01:46:56.873Z,0.77
2023-04-24T01:49:23.462Z,0.40
2023-04-24T01:51:49.799Z,0.83
2023-04-24T01:54:16.205Z,0.90
2023-04-24T01:56:45.955Z,0.63
2023-04-24T01:59:12.808Z,0.67
2023-04-24T02:01:39.624Z,0.50
2023-04-24T02:04:07.088Z,0.60
2023-04-24T02:06:33.619Z,0.57
2023-04-24T02:09:00.164Z,0.40
2023-04-24T02:11:26.663Z,0.30
2023-04-24T02:13:53.380Z,0.60
2023-04-24T02:16:19.737Z,0.63
2023-04-24T02:18:46.254Z,0.70
2023-04-24T02:21:12.570Z,0.63
2023-04-24T02:23:38.917Z,0.50
2023-04-24T02:26:05.380Z,0.60
2023-04-24T02:28:31.704Z,0.47
2023-04-24T02:30:58.140Z,0.50
2023-04-24T02:33:24.441Z,0.80
2023-04-24T02:35:50.778Z,0.60
2023-04-24T02:38:17.085Z,0.77
2023-04-24T02:40:43.500Z,0.40
2023-04-24T02:43:10.397Z,0.50
2023-04-24T02:45:36.814Z,0.30
2023-04-24T02:48:03.202Z,0.60
2023-04-24T02:50:29.588Z,0.30
2023-04-24T02:52:55.987Z,0.40
2023-04-24T02:55:22.304Z,0.37
2023-04-24T02:57:48.825Z,0.27
2023-04-24T03:00:15.378Z,0.57
2023-04-24T03:02:41.825Z,0.50
2023-04-24T03:05:08.545Z,0.50
2023-04-24T03:07:34.913Z,0.50
2023-04-24T03:10:01.383Z,0.40
2023-04-24T03:12:27.807Z,0.33
2023-04-24T03:14:54.143Z,0.43
2023-04-24T03:17:20.528Z,0.23
2023-04-24T03:19:46.809Z,0.60
2023-04-24T03:22:13.405Z,0.50
2023-04-24T03:24:39.744Z,0.60
2023-04-24T03:27:06.186Z,0.30
2023-04-24T03:29:32.635Z,0.30
2023-04-24T03:31:59.074Z,0.30
2023-04-24T03:34:25.930Z,0.20
2023-04-24T03:36:53.483Z,0.30
2023-04-24T03:39:19.911Z,0.20
2023-04-24T03:41:46.289Z,0.20
2023-04-24T03:44:12.592Z,0.10
2023-04-24T03:46:39.045Z,0.10
2023-04-24T03:49:05.436Z,0.30
2023-04-24T03:51:32.508Z,0.20
2023-04-24T03:53:58.914Z,0.10
2023-04-24T03:56:25.502Z,0.40
2023-04-24T03:58:51.791Z,0.20
2023-04-24T04:01:18.191Z,0.20
2023-04-24T04:03:44.892Z,0.20
2023-04-24T04:06:12.186Z,0.30
2023-04-24T04:08:38.636Z,0.20
2023-04-24T04:11:05.565Z,0.10
2023-04-24T04:13:32.074Z,0.10
2023-04-24T04:15:58.496Z,0.23
2023-04-24T04:18:24.863Z,0.33
2023-04-24T04:20:51.159Z,0.30
2023-04-24T04:23:17.530Z,0.30
2023-04-24T04:25:43.976Z,0.50
2023-04-24T04:28:10.519Z,1.10
2023-04-24T04:30:39.232Z,1.70
2023-04-24T04:33:05.659Z,0.97
2023-04-24T04:35:32.074Z,1.20
2023-04-24T04:38:01.731Z,1.83
2023-04-24T04:40:28.895Z,2.43
2023-04-24T04:42:55.255Z,2.30
2023-04-24T04:45:21.680Z,2.57
2023-04-24T04:47:48.436Z,2.27
2023-04-24T04:50:17.647Z,2.20
2023-04-24T04:52:43.971Z,1.90
2023-04-24T04:55:10.261Z,1.60
2023-04-24T04:57:36.727Z,1.80
2023-04-24T05:00:03.118Z,1.87
2023-04-24T05:02:29.529Z,2.83
2023-04-24T05:04:56.254Z,3.37
2023-04-24T05:07:22.800Z,3.77
2023-04-24T05:09:49.109Z,4.73
2023-04-24T05:12:15.553Z,4.20
2023-04-24T05:14:41.923Z,4.33
2023-04-24T05:17:08.384Z,4.47
2023-04-24T05:19:36.994Z,6.10
2023-04-24T05:22:05.198Z,5.27
2023-04-24T05:24:31.549Z,4.57
2023-04-24T05:26:59.578Z,5.17
2023-04-24T05:29:27.225Z,4.87
2023-04-24T05:31:53.668Z,5.23
2023-04-24T05:34:20.066Z,4.50
2023-04-24T05:36:46.388Z,4.80
2023-04-24T05:39:12.805Z,4.80
2023-04-24T05:41:39.191Z,4.67
2023-04-24T05:44:05.741Z,4.33
2023-04-24T05:46:32.246Z,4.10
2023-04-24T05:48:58.636Z,4.33
2023-04-24T05:51:25.032Z,4.00
2023-04-24T05:53:51.496Z,4.27
2023-04-24T05:56:18.072Z,3.80
2023-04-24T05:58:44.575Z,4.30
2023-04-24T06:01:10.892Z,3.63
2023-04-24T06:03:39.311Z,3.77
2023-04-24T06:06:06.971Z,2.73
2023-04-24T06:08:33.761Z,3.13
2023-04-24T06:11:01.390Z,2.97
2023-04-24T06:13:28.585Z,2.70
2023-04-24T06:15:54.966Z,2.80
2023-04-24T06:18:21.283Z,2.80
2023-04-24T06:20:47.841Z,2.43
2023-04-24T06:23:14.191Z,2.53
2023-04-24T06:25:40.701Z,2.53
2023-04-24T06:28:07.024Z,2.20
2023-04-24T06:30:33.417Z,2.50
2023-04-24T06:33:09.121Z,3.30
2023-04-24T06:35:36.528Z,2.80
2023-04-24T06:38:02.839Z,2.57
2023-04-24T06:40:29.233Z,2.60
2023-04-24T08:21:58.085Z,0.90
2023-04-24T08:24:24.751Z,1.20
2023-04-24T08:26:52.474Z,1.37
2023-04-24T08:29:18.881Z,1.33
2023-04-24T08:31:45.586Z,1.20
2023-04-24T08:34:12.009Z,1.33
2023-04-24T08:36:47.001Z,0.90
2023-04-24T08:39:15.087Z,1.40
2023-04-24T08:41:46.201Z,0.97
2023-04-24T08:44:17.277Z,1.13
2023-04-24T08:46:48.649Z,1.03
2023-04-24T08:49:19.832Z,0.80
2023-04-24T08:51:49.051Z,1.00
2023-04-24T08:54:15.541Z,1.50
2023-04-24T08:56:49.070Z,1.03
2023-04-24T08:59:20.106Z,1.47
2023-04-24T09:01:49.234Z,0.70
2023-04-24T09:04:18.202Z,1.57
2023-04-24T09:06:46.013Z,1.00
2023-04-24T09:09:13.888Z,1.30
2023-04-24T09:11:40.966Z,0.70
2023-04-24T09:14:07.829Z,1.10
2023-04-24T09:16:36.488Z,0.67
2023-04-24T09:19:04.131Z,0.93
2023-04-24T09:21:35.393Z,0.40
2023-04-24T09:24:06.984Z,0.90
2023-04-24T09:26:36.758Z,0.77
2023-04-24T09:29:05.608Z,0.80
2023-04-24T09:31:32.726Z,0.60
2023-04-24T09:34:01.804Z,0.60
2023-04-24T09:36:46.049Z,0.47
2023-04-24T09:39:16.717Z,0.47
2023-04-24T09:41:54.709Z,0.53
2023-04-24T09:44:26.213Z,0.50
2023-04-24T09:46:55.683Z,0.60
2023-04-24T09:49:30.320Z,1.03
2023-04-24T09:52:07.688Z,1.00
2023-04-24T09:54:34.385Z,0.83
2023-04-24T09:57:03.764Z,0.70
2023-04-24T09:59:30.903Z,0.50
2023-04-24T10:01:59.613Z,0.50
2023-04-24T10:04:28.043Z,0.70
2023-04-24T10:06:56.936Z,0.43
2023-04-24T10:09:25.753Z,0.70
2023-04-24T10:11:54.425Z,0.50
2023-04-24T10:14:26.092Z,0.97
2023-04-24T10:16:55.444Z,0.63
2023-04-24T10:19:21.972Z,0.70
2023-04-24T10:21:50.614Z,0.63
2023-04-24T10:24:19.177Z,0.80
2023-04-24T10:26:46.869Z,0.70
2023-04-24T10:29:16.351Z,0.80
2023-04-24T10:31:46.408Z,0.80
2023-04-24T10:34:13.600Z,0.50
2023-04-24T10:36:46.958Z,0.40
2023-04-24T10:39:16.239Z,0.43
2023-04-24T10:41:42.826Z,0.63
2023-04-24T10:44:14.059Z,0.40
2023-04-24T10:46:44.844Z,0.40
2023-04-24T10:49:11.435Z,0.93
2023-04-24T10:51:53.745Z,0.43
2023-04-24T10:54:43.515Z,0.57
2023-04-24T10:57:22.912Z,0.50
2023-04-24T11:00:10.852Z,0.50
2023-04-24T11:02:39.510Z,0.53
2023-04-24T11:05:07.127Z,0.53
2023-04-24T11:08:15.595Z,0.60
2023-04-24T11:10:48.579Z,0.50
2023-04-24T11:13:22.206Z,1.00
2023-04-24T11:16:30.022Z,0.80
2023-04-24T11:19:17.801Z,0.50
2023-04-24T11:21:58.604Z,0.50
2023-04-24T11:24:26.443Z,0.70
2023-04-24T11:26:57.830Z,0.47
2023-04-24T11:29:40.006Z,0.70
2023-04-24T11:32:38.421Z,0.90
2023-04-24T11:35:28.688Z,1.10
2023-04-24T11:40:26.501Z,1.00
2023-04-24T11:42:56.382Z,0.97
2023-04-24T11:45:28.360Z,1.17
2023-04-24T11:47:55.036Z,1.00
2023-04-24T11:50:30.070Z,0.90
2023-04-24T11:52:57.012Z,0.90
2023-04-24T11:55:24.506Z,1.40
2023-04-24T11:57:53.895Z,1.10
2023-04-24T12:00:22.735Z,0.93
2023-04-24T12:02:50.475Z,1.23
2023-04-24T12:05:28.181Z,1.23
2023-04-24T12:07:55.391Z,1.17
2023-04-24T12:10:23.567Z,1.67
2023-04-24T12:12:52.295Z,1.00
2023-04-24T12:15:21.148Z,1.77
2023-04-24T12:17:48.007Z,1.13
2023-04-24T12:20:15.892Z,1.73
2023-04-24T12:22:57.215Z,1.70
2023-04-24T12:25:29.396Z,1.50
2023-04-24T12:28:13.051Z,1.33
2023-04-24T12:30:49.333Z,1.53
2023-04-24T12:33:22.975Z,1.90
2023-04-24T12:35:52.853Z,1.40
2023-04-24T12:38:26.676Z,1.43
2023-04-24T12:41:11.071Z,1.43
2023-04-24T12:43:41.275Z,1.80
2023-04-24T12:46:07.826Z,1.60
2023-04-24T12:48:34.620Z,1.90
2023-04-24T12:51:04.193Z,1.53
2023-04-24T12:53:32.065Z,1.80
2023-04-24T12:55:58.586Z,1.80
2023-04-24T12:58:26.066Z,1.27
2023-04-24T13:00:52.622Z,1.63
2023-04-24T13:03:21.357Z,1.33
2023-04-24T13:05:48.093Z,2.07
2023-04-24T13:08:14.545Z,1.60
2023-04-24T13:10:43.092Z,1.40
2023-04-24T13:13:10.052Z,1.83
2023-04-24T13:15:36.612Z,1.53
2023-04-24T13:18:04.076Z,1.63
2023-04-24T13:20:30.921Z,1.97
2023-04-24T13:22:57.433Z,1.80
2023-04-24T13:25:24.611Z,1.70
2023-04-24T13:27:51.821Z,1.10
2023-04-24T13:30:18.260Z,1.00
2023-04-24T13:32:44.980Z,1.50
2023-04-24T13:35:11.436Z,1.63
2023-04-24T13:37:39.954Z,1.90
2023-04-24T13:40:07.990Z,2.83
2023-04-24T13:42:34.839Z,1.77
2023-04-24T13:45:06.020Z,1.63
2023-04-24T13:47:42.065Z,1.77
2023-04-24T13:50:11.091Z,2.17
2023-04-24T13:52:38.111Z,2.40
2023-04-24T13:55:04.838Z,1.70
2023-04-24T13:57:32.602Z,1.63
2023-04-24T14:00:03.616Z,1.60
2023-04-24T14:02:30.319Z,2.10
2023-04-24T14:05:00.342Z,1.63
2023-04-24T14:07:27.020Z,2.30
2023-04-24T14:09:53.430Z,2.30
2023-04-24T14:12:20.769Z,1.50
2023-04-24T14:14:49.060Z,2.63
2023-04-24T14:17:15.885Z,1.77
2023-04-24T14:19:42.321Z,1.40
2023-04-24T14:22:08.843Z,1.47
2023-04-24T14:24:38.412Z,2.20
2023-04-24T14:27:04.956Z,2.23
2023-04-24T14:29:32.321Z,1.90
2023-04-24T14:31:59.736Z,1.93
2023-04-24T14:34:26.350Z,1.50
2023-04-24T14:36:53.501Z,1.60
2023-04-24T14:42:12.037Z,1.50
2023-04-24T14:44:38.556Z,1.57
2023-04-24T14:47:05.231Z,2.10
2023-04-24T14:49:31.802Z,1.87
2023-04-24T14:51:58.224Z,1.47
2023-04-24T14:54:24.793Z,2.10
2023-04-24T14:56:51.659Z,1.47
2023-04-24T14:59:18.109Z,2.00
2023-04-24T15:01:44.629Z,1.60
2023-04-24T15:04:11.171Z,1.67
2023-04-24T15:06:37.638Z,1.70
2023-04-24T15:09:04.428Z,1.80
2023-04-24T15:11:31.001Z,1.73
2023-04-24T15:13:57.844Z,1.67
2023-04-24T15:16:25.501Z,1.70
2023-04-24T15:18:52.001Z,3.73
2023-04-24T15:21:20.472Z,1.93
2023-04-24T15:23:47.084Z,1.90
2023-04-24T15:26:13.978Z,2.17
2023-04-24T15:28:40.488Z,1.80
2023-04-24T15:31:06.982Z,2.40
2023-04-24T15:33:33.685Z,2.33
2023-04-24T15:36:00.450Z,1.97
2023-04-24T15:38:27.003Z,1.63
2023-04-24T15:40:53.454Z,1.63
2023-04-24T15:43:19.990Z,2.13
2023-04-24T15:45:46.490Z,1.83
2023-04-24T15:48:13.354Z,2.17
2023-04-24T15:50:39.797Z,2.07
2023-04-24T15:53:06.698Z,1.33
2023-04-24T15:55:33.698Z,1.90
2023-04-24T15:58:01.167Z,1.73
2023-04-24T16:00:34.064Z,1.27
2023-04-24T16:03:02.117Z,2.00
2023-04-24T16:05:29.219Z,2.67
2023-04-24T16:07:55.712Z,2.33
2023-04-24T16:10:24.260Z,2.20
2023-04-24T16:12:53.367Z,1.97
2023-04-24T16:15:20.453Z,1.93
2023-04-24T16:17:47.688Z,2.37
2023-04-24T16:20:14.426Z,2.07
2023-04-24T16:22:40.859Z,1.80
2023-04-24T16:25:08.700Z,1.87
2023-04-24T16:27:35.654Z,2.07
2023-04-24T16:30:02.888Z,1.83
2023-04-24T16:32:29.545Z,1.80
2023-04-24T16:34:56.028Z,1.90
2023-04-24T16:37:22.684Z,2.00
2023-04-24T16:39:49.167Z,2.20
2023-04-24T16:42:16.114Z,2.03
2023-04-24T16:44:43.206Z,2.03
2023-04-24T16:47:11.746Z,1.50
2023-04-24T16:49:38.299Z,2.00
2023-04-24T16:52:04.839Z,1.70
2023-04-24T16:54:34.559Z,2.27
2023-04-24T16:57:01.697Z,2.10
2023-04-24T16:59:33.802Z,1.57
2023-04-24T17:02:01.362Z,1.63
2023-04-24T17:04:28.055Z,1.47
2023-04-24T17:06:54.921Z,1.43
2023-04-24T17:09:21.572Z,1.53
2023-04-24T17:11:48.088Z,1.70
2023-04-24T17:14:14.590Z,1.47
2023-04-24T17:16:41.513Z,1.53
2023-04-24T17:19:07.979Z,1.70
2023-04-24T17:21:34.614Z,1.77
2023-04-24T17:24:01.072Z,1.70
2023-04-24T17:26:28.524Z,2.70
2023-04-24T17:28:55.262Z,1.40
2023-04-24T17:31:21.840Z,1.40
2023-04-24T17:33:48.289Z,1.50
2023-04-24T17:36:14.946Z,1.30
2023-04-24T17:38:41.504Z,1.47
2023-04-24T17:41:08.080Z,1.20
2023-04-24T17:43:34.631Z,1.20
2023-04-24T17:46:01.489Z,1.53
2023-04-24T17:48:28.077Z,1.53
2023-04-24T17:50:54.504Z,1.20
2023-04-24T17:53:21.761Z,1.07
2023-04-24T17:55:48.488Z,1.00
2023-04-24T17:58:15.448Z,1.20
2023-04-24T18:00:43.045Z,0.93
2023-04-24T18:03:09.841Z,1.03
2023-04-24T18:05:38.370Z,1.07
2023-04-24T18:08:05.934Z,1.13
2023-04-24T18:10:33.460Z,1.00
2023-04-24T18:12:59.900Z,0.70
2023-04-24T18:15:26.418Z,0.80
2023-04-24T18:17:52.923Z,0.40
2023-04-24T18:20:20.311Z,0.30
2023-04-24T18:22:47.089Z,0.53
2023-04-24T18:25:15.245Z,0.57
2023-04-24T18:27:42.233Z,0.40
2023-04-24T18:30:14.255Z,0.40
2023-04-24T18:32:41.243Z,0.50
2023-04-24T18:35:07.963Z,0.43
2023-04-24T18:37:34.460Z,0.77
2023-04-24T18:40:00.906Z,0.70
2023-04-24T18:42:27.332Z,0.57
2023-04-24T18:44:53.853Z,0.50
2023-04-24T18:47:20.329Z,0.97
2023-04-24T18:49:46.865Z,0.60
2023-04-24T18:52:13.342Z,0.60
2023-04-24T18:54:41.050Z,0.90
2023-04-24T18:57:07.510Z,0.80
2023-04-24T18:59:33.900Z,0.60
2023-04-24T19:02:00.558Z,0.73
2023-04-24T19:04:27.110Z,0.93
2023-04-24T19:06:53.493Z,1.00
2023-04-24T19:09:20.045Z,0.70
2023-04-24T19:11:46.646Z,0.77
2023-04-24T19:14:13.629Z,0.67
2023-04-24T19:16:40.442Z,0.60
2023-04-24T19:19:07.346Z,0.60
2023-04-24T19:21:34.915Z,1.17
2023-04-24T19:24:01.493Z,0.80
2023-04-24T19:26:31.205Z,0.80
2023-04-24T19:28:58.981Z,0.47
2023-04-24T19:31:26.519Z,0.60
2023-04-24T19:33:53.292Z,0.80
2023-04-24T19:36:19.964Z,0.90
2023-04-24T19:38:47.337Z,0.90
2023-04-24T19:41:14.160Z,0.90
2023-04-24T19:43:40.637Z,0.80
2023-04-24T19:46:07.442Z,0.70
2023-04-24T19:48:34.116Z,0.80
2023-04-24T19:51:01.535Z,0.77
2023-04-24T19:53:28.676Z,0.73
2023-04-24T19:55:55.369Z,0.73
2023-04-24T19:58:21.905Z,0.90
2023-04-24T20:00:48.417Z,0.63
2023-04-24T20:03:25.553Z,1.10
2023-04-24T20:05:58.336Z,0.83
2023-04-24T20:08:24.765Z,0.47
2023-04-24T20:10:52.265Z,0.37
2023-04-24T20:13:18.856Z,1.00
2023-04-24T20:15:45.733Z,1.23
2023-04-24T20:18:12.174Z,1.47
2023-04-24T20:20:41.487Z,0.97
2023-04-24T20:23:08.044Z,0.83
2023-04-24T20:25:35.742Z,0.80
2023-04-24T20:28:02.323Z,1.20
2023-04-24T20:30:28.959Z,0.87
2023-04-24T20:32:55.439Z,0.70
2023-04-24T20:35:21.960Z,1.50
2023-04-24T20:37:48.535Z,1.00
2023-04-24T20:40:15.176Z,1.40
2023-04-24T20:42:41.798Z,0.87
2023-04-24T20:45:08.819Z,1.10
2023-04-24T20:47:36.717Z,0.93
2023-04-24T20:50:04.224Z,1.10
2023-04-24T20:52:33.457Z,1.00
2023-04-24T20:55:00.054Z,1.33
2023-04-24T20:57:26.623Z,0.90
2023-04-24T20:59:53.259Z,0.80
2023-04-24T21:02:20.439Z,0.80
2023-04-24T21:04:47.151Z,1.00
2023-04-24T21:07:13.955Z,1.10
2023-04-24T21:09:40.519Z,1.27
2023-04-24T21:12:07.338Z,1.00
2023-04-24T21:14:33.816Z,0.93
2023-04-24T21:17:01.788Z,1.73
2023-04-24T21:19:28.312Z,1.50
2023-04-24T21:21:54.707Z,2.13
2023-04-24T21:24:22.751Z,2.20
2023-04-24T21:26:49.638Z,1.50
2023-04-24T21:29:16.300Z,1.30
2023-04-24T21:31:42.793Z,2.20
2023-04-24T21:34:09.272Z,1.50
2023-04-24T21:36:35.717Z,1.53
2023-04-24T21:39:02.125Z,1.70
2023-04-24T21:41:28.711Z,1.33
2023-04-24T21:43:55.507Z,1.37
2023-04-24T21:46:22.425Z,1.47
2023-04-24T21:48:48.882Z,1.47
2023-04-24T21:51:16.656Z,1.73
2023-04-24T21:53:43.149Z,1.33
2023-04-24T21:56:09.671Z,1.53
2023-04-24T21:58:36.876Z,1.77
2023-04-24T22:01:03.509Z,1.53
2023-04-24T22:03:30.537Z,1.70
2023-04-24T22:05:57.068Z,1.67
2023-04-24T22:08:24.732Z,1.30
2023-04-24T22:10:52.863Z,2.37
2023-04-24T22:13:19.602Z,1.77
2023-04-24T22:15:46.094Z,1.60
2023-04-24T22:18:13.500Z,1.10
2023-04-24T22:20:40.945Z,1.27
2023-04-24T22:23:07.390Z,1.50
2023-04-24T22:25:33.990Z,1.43
2023-04-24T22:28:00.464Z,1.63
2023-04-24T22:30:27.041Z,1.47
2023-04-24T22:32:54.607Z,1.40
2023-04-24T22:35:21.187Z,1.43
2023-04-24T22:37:50.885Z,1.87
2023-04-24T22:40:17.554Z,1.93
2023-04-24T22:42:43.995Z,1.70
2023-04-24T22:45:12.802Z,1.53
2023-04-24T22:47:40.121Z,1.50
2023-04-24T22:50:08.727Z,1.67
2023-04-24T22:52:35.819Z,2.00
2023-04-24T22:55:02.913Z,1.43
2023-04-24T22:57:29.889Z,1.60
2023-04-24T22:59:57.332Z,1.87
2023-04-24T23:02:23.908Z,1.30
2023-04-24T23:04:50.430Z,1.53
2023-04-24T23:07:16.938Z,1.20
2023-04-24T23:09:43.367Z,1.60
2023-04-24T23:12:09.839Z,1.43
2023-04-24T23:14:36.469Z,1.90
2023-04-24T23:17:03.929Z,1.60
2023-04-24T23:19:30.578Z,1.73
2023-04-24T23:21:57.072Z,1.53
2023-04-24T23:24:23.756Z,1.33
2023-04-24T23:26:50.383Z,1.30
2023-04-24T23:29:16.808Z,1.67
2023-04-24T23:31:43.249Z,1.73
2023-04-24T23:34:09.674Z,1.53
2023-04-24T23:36:36.588Z,1.93
2023-04-24T23:39:05.202Z,1.30
2023-04-24T23:41:31.682Z,2.03
2023-04-24T23:43:58.133Z,1.17
2023-04-24T23:46:24.648Z,1.50
2023-04-24T23:48:51.046Z,1.13
2023-04-24T23:51:17.786Z,1.40
2023-04-24T23:53:44.255Z,1.50
2023-04-24T23:56:10.933Z,1.87
2023-04-24T23:58:37.417Z,1.30
